createdAt,value
2022-11-14T00:01:07.860Z,96.19
2022-11-14T00:05:09.352Z,96.47
2022-11-14T00:09:10.598Z,96.40
2022-11-14T00:13:12.083Z,95.72
2022-11-14T00:17:13.345Z,96.48
2022-11-14T00:21:14.649Z,96.72
2022-11-14T00:25:15.971Z,96.59
2022-11-14T00:29:17.416Z,96.87
2022-11-14T00:33:20.687Z,96.60
2022-11-14T00:37:22.265Z,96.39
2022-11-14T00:41:23.844Z,96.08
2022-11-14T00:45:26.017Z,95.74
2022-11-14T00:49:27.359Z,95.22
2022-11-14T00:53:28.663Z,95.46
2022-11-14T00:57:29.989Z,95.30
2022-11-14T01:01:31.354Z,95.49
2022-11-14T01:05:32.697Z,95.57
2022-11-14T01:09:34.126Z,95.19
2022-11-14T01:13:35.415Z,95.33
2022-11-14T01:17:36.995Z,95.37
2022-11-14T01:21:38.265Z,95.52
2022-11-14T01:25:40.364Z,95.52
2022-11-14T01:29:41.594Z,95.57
2022-11-14T01:33:43.303Z,95.25
2022-11-14T01:37:44.535Z,94.82
2022-11-14T01:41:45.883Z,95.10
2022-11-14T01:45:57.916Z,94.76
2022-11-14T01:50:01.155Z,94.80
2022-11-14T01:54:05.719Z,94.65
2022-11-14T01:58:07.148Z,95.00
2022-11-14T02:02:12.995Z,94.88
2022-11-14T02:06:17.076Z,94.67
2022-11-14T02:10:20.203Z,94.63
2022-11-14T02:14:22.120Z,94.76
2022-11-14T02:18:23.419Z,94.57
2022-11-14T02:22:24.743Z,94.77
2022-11-14T02:26:25.987Z,94.58
2022-11-14T02:30:27.679Z,94.82
2022-11-14T02:34:29.454Z,95.11
2022-11-14T02:38:31.655Z,95.02
2022-11-14T02:42:33.264Z,95.25
2022-11-14T02:46:34.584Z,95.79
2022-11-14T02:50:35.979Z,96.07
2022-11-14T02:54:37.292Z,96.07
2022-11-14T02:58:38.544Z,96.02
2022-11-14T03:02:39.832Z,96.00
2022-11-14T03:06:41.175Z,96.13
2022-11-14T03:10:42.581Z,96.19
2022-11-14T03:14:43.843Z,96.28
2022-11-14T03:18:45.171Z,96.39
2022-11-14T03:22:46.400Z,96.53
2022-11-14T03:26:47.696Z,96.42
2022-11-14T03:30:48.955Z,96.38
2022-11-14T03:34:50.257Z,96.52
2022-11-14T03:38:51.485Z,96.68
2022-11-14T03:42:52.856Z,96.69
2022-11-14T03:46:54.203Z,96.75
2022-11-14T03:50:55.775Z,96.58
2022-11-14T03:54:57.011Z,96.69
2022-11-14T03:58:58.338Z,97.01
2022-11-14T04:02:59.772Z,96.96
2022-11-14T04:07:02.916Z,97.10
2022-11-14T04:11:04.304Z,97.34
2022-11-14T04:15:06.373Z,97.44
2022-11-14T04:19:07.737Z,97.71
2022-11-14T04:23:09.891Z,97.85
2022-11-14T04:27:11.193Z,97.80
2022-11-14T04:31:12.843Z,98.10
2022-11-14T04:35:14.366Z,98.10
2022-11-14T04:39:15.662Z,98.02
2022-11-14T04:43:17.392Z,97.95
2022-11-14T04:47:18.726Z,97.96
2022-11-14T04:51:20.195Z,98.34
2022-11-14T04:55:21.593Z,97.98
2022-11-14T04:59:22.879Z,98.34
2022-11-14T05:03:24.558Z,98.44
2022-11-14T05:07:25.945Z,98.44
2022-11-14T05:11:29.389Z,98.69
2022-11-14T05:15:30.912Z,98.66
2022-11-14T05:19:32.702Z,98.78
2022-11-14T05:23:34.007Z,98.97
2022-11-14T05:27:35.557Z,98.89
2022-11-14T05:31:36.834Z,99.00
2022-11-14T05:35:38.143Z,99.13
2022-11-14T05:39:39.413Z,99.26
2022-11-14T05:43:41.424Z,99.29
2022-11-14T05:47:42.680Z,99.12
2022-11-14T05:51:44.024Z,99.02
2022-11-14T05:55:45.280Z,99.05
2022-11-14T05:59:46.610Z,99.24
2022-11-14T06:03:48.418Z,99.49
2022-11-14T06:07:55.063Z,99.84
2022-11-14T06:11:56.286Z,99.69
2022-11-14T06:16:02.180Z,99.82
2022-11-14T06:20:03.651Z,99.68
2022-11-14T06:24:05.459Z,99.87
2022-11-14T06:28:06.834Z,100.00
2022-11-14T06:32:08.289Z,99.72
2022-11-14T06:36:10.001Z,99.94
2022-11-14T06:40:11.512Z,99.74
2022-11-14T06:44:14.891Z,100.00
2022-11-14T06:48:16.165Z,100.00
2022-11-14T06:52:17.410Z,100.00
2022-11-14T06:56:20.217Z,100.00
2022-11-14T07:00:21.895Z,100.00
2022-11-14T07:04:23.167Z,100.00
2022-11-14T07:08:24.441Z,100.00
2022-11-14T07:12:25.874Z,100.00
2022-11-14T07:16:31.279Z,99.93
2022-11-14T07:20:33.006Z,100.00
2022-11-14T07:24:35.080Z,100.00
2022-11-14T07:28:40.853Z,100.00
2022-11-14T07:32:42.144Z,100.00
2022-11-14T07:36:43.475Z,100.00
2022-11-14T07:40:58.138Z,100.00
2022-11-14T07:45:01.234Z,100.00
2022-11-14T07:49:02.640Z,100.00
2022-11-14T07:53:03.947Z,100.00
2022-11-14T07:57:05.183Z,99.84
2022-11-14T08:01:07.410Z,99.46
2022-11-14T08:05:09.006Z,99.65
2022-11-14T08:09:10.718Z,99.70
2022-11-14T08:17:33.427Z,99.38
2022-11-14T08:21:36.053Z,99.67
2022-11-14T08:25:37.358Z,99.16
2022-11-14T08:29:38.608Z,98.97
2022-11-14T08:33:39.883Z,99.07
2022-11-14T08:37:41.156Z,99.19
2022-11-14T08:41:42.414Z,99.11
2022-11-14T08:45:43.679Z,98.87
2022-11-14T08:49:45.312Z,99.37
2022-11-14T08:53:46.658Z,99.19
2022-11-14T08:57:49.591Z,98.68
2022-11-14T09:01:51.377Z,99.00
2022-11-14T09:05:53.208Z,98.36
2022-11-14T09:09:54.527Z,98.68
2022-11-14T09:13:56.091Z,98.25
2022-11-14T09:17:57.745Z,98.41
2022-11-14T09:21:59.884Z,98.54
2022-11-14T09:26:05.237Z,98.30
2022-11-14T09:30:06.736Z,98.48
2022-11-14T09:34:07.963Z,98.67
2022-11-14T09:38:11.030Z,98.50
2022-11-14T09:42:38.690Z,98.03
2022-11-14T09:46:42.492Z,98.19
2022-11-14T09:50:48.005Z,98.08
2022-11-14T09:54:52.350Z,97.63
2022-11-14T09:58:55.679Z,98.32
2022-11-14T10:03:03.147Z,97.87
2022-11-14T10:07:14.805Z,97.55
2022-11-14T10:11:23.100Z,97.76
2022-11-14T10:15:42.033Z,97.44
2022-11-14T10:19:46.538Z,97.33
2022-11-14T10:24:12.739Z,97.89
2022-11-14T10:28:26.216Z,97.66
2022-11-14T10:32:37.840Z,97.83
2022-11-14T10:36:59.573Z,97.70
2022-11-14T10:41:04.351Z,97.80
2022-11-14T10:45:23.982Z,97.32
2022-11-14T10:49:26.251Z,97.45
2022-11-14T10:53:27.522Z,97.05
2022-11-14T10:57:28.816Z,97.18
2022-11-14T11:01:40.968Z,96.74
2022-11-14T11:05:46.971Z,96.11
2022-11-14T11:10:16.162Z,96.23
2022-11-14T11:14:18.136Z,95.54
2022-11-14T11:18:25.647Z,95.83
2022-11-14T11:22:35.172Z,95.33
2022-11-14T11:26:36.505Z,95.04
2022-11-14T11:30:38.219Z,95.01
2022-11-14T11:34:40.110Z,94.79
2022-11-14T11:38:41.911Z,94.66
2022-11-14T11:47:22.541Z,94.50
2022-11-14T11:51:27.240Z,94.29
2022-11-14T11:55:49.408Z,94.32
2022-11-14T11:59:54.958Z,93.30
2022-11-14T12:03:56.322Z,92.97
2022-11-14T12:08:00.770Z,91.36
2022-11-14T12:12:05.224Z,90.60
2022-11-14T12:16:15.551Z,89.48
2022-11-14T12:20:28.276Z,88.09
2022-11-14T12:24:38.698Z,87.63
2022-11-14T12:28:40.158Z,87.88
2022-11-14T12:32:45.262Z,86.23
2022-11-14T12:36:46.743Z,86.04
2022-11-14T12:40:56.639Z,85.58
2022-11-14T12:44:58.326Z,84.62
2022-11-14T12:48:59.661Z,84.69
2022-11-14T12:53:00.987Z,85.42
2022-11-14T12:57:09.865Z,85.44
2022-11-14T13:01:14.222Z,85.93
2022-11-14T13:05:51.257Z,86.58
2022-11-14T13:10:02.673Z,86.06
2022-11-14T13:14:26.468Z,85.96
2022-11-14T13:18:46.587Z,86.28
2022-11-14T13:22:48.276Z,86.53
2022-11-14T13:26:51.125Z,86.64
2022-11-14T13:31:07.529Z,87.17
2022-11-14T13:35:15.756Z,87.44
2022-11-14T13:39:32.963Z,87.50
2022-11-14T13:43:34.596Z,88.64
2022-11-14T13:47:54.802Z,89.33
2022-11-14T13:51:56.287Z,90.08
2022-11-14T13:56:08.351Z,90.55
2022-11-14T14:00:20.104Z,91.09
2022-11-14T14:04:31.719Z,91.78
2022-11-14T14:08:55.558Z,92.84
2022-11-14T14:13:16.158Z,93.61
2022-11-14T14:17:17.404Z,93.82
2022-11-14T14:21:33.600Z,94.15
2022-11-14T14:25:40.936Z,94.84
2022-11-14T14:30:02.772Z,94.96
2022-11-14T14:34:19.863Z,94.80
2022-11-14T14:38:25.747Z,94.90
2022-11-14T14:42:34.801Z,95.16
2022-11-14T14:46:37.967Z,95.34
2022-11-14T14:50:48.076Z,95.17
2022-11-14T14:54:56.201Z,95.17
2022-11-14T14:58:57.557Z,94.76
2022-11-14T15:02:58.978Z,94.55
2022-11-14T15:07:00.403Z,94.54
2022-11-14T15:11:02.688Z,94.64
2022-11-14T15:15:04.445Z,94.79
2022-11-14T15:19:06.059Z,95.07
2022-11-14T15:23:10.366Z,95.13
2022-11-14T15:27:13.090Z,94.99
2022-11-14T15:31:21.888Z,95.20
2022-11-14T15:35:25.570Z,95.26
2022-11-14T15:39:27.957Z,95.56
2022-11-14T15:43:44.775Z,95.78
2022-11-14T15:47:46.167Z,96.79
2022-11-14T15:51:49.628Z,96.93
2022-11-14T15:55:51.224Z,96.54
2022-11-14T15:59:53.008Z,97.07
2022-11-14T16:03:54.307Z,97.01
2022-11-14T16:07:55.937Z,97.53
2022-11-14T16:11:57.295Z,97.28
2022-11-14T16:15:58.588Z,97.52
2022-11-14T16:19:59.886Z,97.51
2022-11-14T16:24:01.507Z,97.86
2022-11-14T16:28:02.975Z,97.74
2022-11-14T16:32:04.590Z,97.66
2022-11-14T16:36:06.669Z,97.81
2022-11-14T16:40:13.336Z,98.11
2022-11-14T16:44:18.687Z,98.35
2022-11-14T16:48:20.103Z,98.45
2022-11-14T16:52:21.393Z,98.58
2022-11-14T16:56:22.904Z,98.81
2022-11-14T17:00:24.315Z,98.87
2022-11-14T17:04:25.596Z,99.01
2022-11-14T17:08:26.875Z,99.83
2022-11-14T17:12:29.387Z,100.00
2022-11-14T17:16:30.752Z,100.00
2022-11-14T17:20:33.491Z,99.79
2022-11-14T17:24:34.762Z,100.00
2022-11-14T17:28:36.183Z,99.79
2022-11-14T17:32:37.480Z,100.00
2022-11-14T17:36:39.196Z,100.00
2022-11-14T17:40:40.607Z,100.00
2022-11-14T17:44:41.891Z,100.00
2022-11-14T17:48:43.673Z,100.00
2022-11-14T17:52:44.963Z,100.00
2022-11-14T17:56:50.982Z,100.00
2022-11-14T18:00:55.440Z,100.00
2022-11-14T18:04:56.724Z,100.00
2022-11-14T18:09:01.579Z,100.00
2022-11-14T18:13:04.935Z,100.00
2022-11-14T18:17:12.678Z,100.00
2022-11-14T18:21:15.944Z,100.00
2022-11-14T18:25:17.280Z,100.00
2022-11-14T18:29:18.832Z,100.00
2022-11-14T18:33:20.085Z,100.00
2022-11-14T18:37:22.405Z,100.00
2022-11-14T18:41:24.248Z,100.00
2022-11-14T18:45:25.474Z,100.00
2022-11-14T18:49:28.259Z,100.00
2022-11-14T18:53:33.345Z,100.00
2022-11-14T18:57:34.838Z,100.00
2022-11-14T19:01:36.171Z,100.00
2022-11-14T19:05:37.500Z,100.00
2022-11-14T19:09:39.306Z,100.00
2022-11-14T19:13:41.621Z,100.00
2022-11-14T19:17:43.159Z,100.00
2022-11-14T19:21:47.531Z,100.00
2022-11-14T19:25:48.788Z,100.00
2022-11-14T19:29:50.779Z,100.00
2022-11-14T19:33:52.072Z,100.00
2022-11-14T19:37:53.375Z,100.00
2022-11-14T19:41:54.644Z,100.00
2022-11-14T19:46:00.308Z,100.00
2022-11-14T19:50:01.627Z,100.00
2022-11-14T19:54:03.044Z,100.00
2022-11-14T19:58:04.300Z,100.00
2022-11-14T20:02:05.802Z,100.00
2022-11-14T20:06:14.804Z,100.00
2022-11-14T20:10:16.585Z,100.00
2022-11-14T20:14:18.043Z,100.00
2022-11-14T20:18:19.673Z,100.00
2022-11-14T20:22:20.994Z,100.00
2022-11-14T20:26:22.482Z,100.00
2022-11-14T20:30:24.004Z,100.00
2022-11-14T20:34:25.314Z,100.00
2022-11-14T20:38:28.228Z,100.00
2022-11-14T20:42:29.539Z,100.00
2022-11-14T20:46:30.976Z,100.00
2022-11-14T20:50:33.139Z,100.00
2022-11-14T20:54:34.423Z,100.00
2022-11-14T20:58:35.905Z,100.00
2022-11-14T21:02:37.210Z,100.00
2022-11-14T21:06:38.505Z,100.00
2022-11-14T21:10:46.881Z,100.00
2022-11-14T21:14:48.180Z,100.00
2022-11-14T21:18:51.999Z,100.00
2022-11-14T21:22:53.561Z,100.00
2022-11-14T21:26:54.788Z,100.00
2022-11-14T21:30:58.371Z,100.00
2022-11-14T21:34:59.615Z,100.00
2022-11-14T21:39:01.013Z,100.00
2022-11-14T21:43:02.604Z,100.00
2022-11-14T21:47:03.922Z,100.00
2022-11-14T21:51:21.738Z,100.00
2022-11-14T21:55:23.018Z,100.00
2022-11-14T21:59:27.384Z,100.00
2022-11-14T22:03:47.203Z,100.00
2022-11-14T22:07:48.699Z,100.00
2022-11-14T22:11:49.992Z,100.00
2022-11-14T22:15:51.249Z,100.00
2022-11-14T22:19:52.621Z,100.00
2022-11-14T22:23:54.956Z,100.00
2022-11-14T22:27:56.651Z,100.00
2022-11-14T22:31:57.870Z,100.00
2022-11-14T22:36:05.976Z,100.00
2022-11-14T22:40:07.612Z,100.00
2022-11-14T22:44:09.345Z,100.00
2022-11-14T22:48:10.631Z,100.00
2022-11-14T22:52:11.907Z,100.00
2022-11-14T22:56:13.630Z,100.00
2022-11-14T23:00:16.719Z,100.00
2022-11-14T23:04:18.036Z,100.00
2022-11-14T23:08:20.559Z,100.00
2022-11-14T23:12:21.992Z,100.00
2022-11-14T23:16:24.511Z,100.00
2022-11-14T23:20:26.375Z,100.00
2022-11-14T23:24:28.015Z,100.00
2022-11-14T23:28:30.750Z,100.00
2022-11-14T23:32:32.410Z,100.00
2022-11-14T23:36:33.699Z,100.00
2022-11-14T23:40:34.951Z,100.00
2022-11-14T23:44:36.302Z,100.00
2022-11-14T23:48:37.653Z,100.00
2022-11-14T23:52:38.895Z,100.00
2022-11-14T23:56:40.204Z,100.00
